Time;durP1;ratioP1;P1;durP2;ratioP2;P2;SDS_P1;SDS_P2;PMS_P1;PMS_P2;Temp;Humidity;BMP_temperature;BMP_pressure;BME280_temperature;BME280_humidity;BME280_pressure;Samples;Min_cycle;Max_cycle;Signal;HPM_P1;HPM_P2
2023/05/24 00:01:26;;;;;;;11.23;6.33;;;10.00;99.90;;;;;;8298729;28;20187;-64
2023/05/24 00:05:29;;;;;;;12.30;6.27;;;10.00;99.90;;;;;;8290050;28;20218;-63
2023/05/24 00:09:30;;;;;;;11.70;5.77;;;10.00;99.90;;;;;;8293748;28;20199;-66
2023/05/24 00:13:31;;;;;;;13.90;6.00;;;10.00;99.90;;;;;;8339123;28;20234;-62
2023/05/24 00:17:40;;;;;;;12.27;6.33;;;9.90;99.90;;;;;;8354372;28;20213;-63
2023/05/24 00:21:41;;;;;;;13.47;6.43;;;9.90;99.90;;;;;;8342396;28;20192;-63
2023/05/24 00:25:42;;;;;;;16.33;6.67;;;9.90;99.90;;;;;;8336049;28;20182;-63
2023/05/24 00:29:43;;;;;;;9.60;5.43;;;9.90;99.90;;;;;;8342325;28;20253;-64
2023/05/24 00:33:46;;;;;;;10.43;5.63;;;9.90;99.90;;;;;;8348551;28;20189;-66
2023/05/24 00:37:47;;;;;;;14.00;6.17;;;9.90;99.90;;;;;;8351877;28;20212;-63
2023/05/24 00:41:48;;;;;;;11.40;6.23;;;9.90;99.90;;;;;;8346006;28;20218;-64
2023/05/24 00:46:18;;;;;;;7.13;5.37;;;9.80;99.90;;;;;;8347526;28;20231;-63
2023/05/24 00:50:22;;;;;;;12.80;6.83;;;9.90;99.90;;;;;;8345723;28;20255;-65
2023/05/24 00:54:29;;;;;;;10.23;5.40;;;9.90;99.90;;;;;;8335616;28;20181;-64
2023/05/24 00:58:32;;;;;;;12.20;6.87;;;9.80;99.90;;;;;;8346181;28;20224;-64
2023/05/24 01:02:39;;;;;;;9.27;5.77;;;9.80;99.90;;;;;;8362318;28;20193;-64
2023/05/24 01:07:08;;;;;;;11.63;6.97;;;9.80;99.90;;;;;;8347475;28;20188;-65
2023/05/24 01:11:21;;;;;;;11.10;7.00;;;9.80;99.90;;;;;;8351890;28;20198;-66
2023/05/24 01:15:50;;;;;;;12.57;6.97;;;9.80;99.90;;;;;;8339534;28;20210;-63
2023/05/24 01:20:08;;;;;;;12.20;8.13;;;9.80;99.90;;;;;;8332055;28;20229;-63
2023/05/24 01:24:37;;;;;;;12.57;8.07;;;9.80;99.90;;;;;;8340267;28;20210;-65
2023/05/24 01:28:39;;;;;;;15.00;9.07;;;9.80;99.90;;;;;;8346626;28;20191;-65
2023/05/24 01:32:41;;;;;;;12.67;9.17;;;9.80;99.90;;;;;;8343448;28;20209;-65
2023/05/24 01:36:46;;;;;;;13.60;8.90;;;9.80;99.90;;;;;;8337860;28;20190;-63
2023/05/24 01:40:53;;;;;;;13.07;8.13;;;9.80;99.90;;;;;;8348596;28;20328;-64
2023/05/24 01:44:57;;;;;;;13.13;8.50;;;9.80;99.90;;;;;;8325845;28;20195;-66
2023/05/24 01:49:20;;;;;;;14.17;8.90;;;9.80;99.90;;;;;;8338428;28;20189;-66
2023/05/24 01:53:25;;;;;;;12.43;8.77;;;9.90;99.90;;;;;;8343257;28;20197;-64
2023/05/24 01:57:27;;;;;;;15.77;8.90;;;9.90;99.90;;;;;;8335615;28;20206;-65
2023/05/24 02:01:29;;;;;;;12.93;7.67;;;9.90;99.90;;;;;;8355946;28;20291;-64
2023/05/24 02:05:33;;;;;;;11.77;9.03;;;9.90;99.90;;;;;;8331386;28;20199;-64
2023/05/24 02:09:34;;;;;;;22.40;10.57;;;9.80;99.90;;;;;;8331842;28;20200;-65
2023/05/24 02:13:35;;;;;;;17.43;11.20;;;9.80;99.90;;;;;;8343901;28;20213;-64
2023/05/24 02:17:36;;;;;;;16.83;11.83;;;9.70;99.90;;;;;;8344893;28;20217;-66
2023/05/24 02:21:37;;;;;;;19.03;12.23;;;9.70;99.90;;;;;;8346002;28;20195;-65
2023/05/24 02:25:38;;;;;;;21.57;12.80;;;9.60;99.90;;;;;;8346655;28;20252;-65
2023/05/24 02:29:40;;;;;;;25.20;13.53;;;9.60;99.90;;;;;;8346904;28;20186;-66
2023/05/24 02:33:42;;;;;;;20.87;12.97;;;9.60;99.90;;;;;;8349792;28;20190;-64
2023/05/24 02:37:43;;;;;;;24.37;14.17;;;9.60;99.90;;;;;;8358599;28;20225;-65
2023/05/24 02:41:44;;;;;;;22.27;14.07;;;9.60;99.90;;;;;;8356814;28;20243;-65
2023/05/24 02:45:51;;;;;;;25.83;13.23;;;9.60;99.90;;;;;;8349915;28;20336;-64
2023/05/24 02:49:55;;;;;;;25.47;15.03;;;9.60;99.90;;;;;;8350508;28;20197;-65
2023/05/24 02:53:59;;;;;;;25.47;14.67;;;9.60;99.90;;;;;;8351667;28;20185;-65
2023/05/24 02:58:01;;;;;;;24.40;14.43;;;9.60;99.90;;;;;;8346168;28;20245;-67
2023/05/24 03:02:08;;;;;;;27.00;15.63;;;9.60;99.90;;;;;;8353353;28;20181;-66
2023/05/24 03:06:09;;;;;;;23.93;14.10;;;9.60;99.90;;;;;;8347732;28;20175;-64
2023/05/24 03:10:10;;;;;;;20.43;12.80;;;9.60;99.90;;;;;;8347190;28;20206;-68
2023/05/24 03:14:11;;;;;;;24.13;12.93;;;9.60;99.90;;;;;;8343725;28;20194;-65
2023/05/24 03:18:12;;;;;;;22.57;12.47;;;9.60;99.90;;;;;;8347929;28;20233;-65
2023/05/24 03:22:13;;;;;;;21.37;12.73;;;9.50;99.90;;;;;;8341953;28;20186;-66
2023/05/24 03:26:14;;;;;;;19.47;11.00;;;9.50;99.90;;;;;;8352044;28;20192;-67
2023/05/24 03:30:15;;;;;;;20.80;11.67;;;9.50;99.90;;;;;;8344313;28;20208;-66
2023/05/24 03:34:19;;;;;;;17.70;11.00;;;9.40;99.90;;;;;;8348162;28;20185;-66
2023/05/24 03:38:20;;;;;;;18.97;10.27;;;9.40;99.90;;;;;;8344244;28;20211;-66
2023/05/24 03:42:21;;;;;;;23.30;10.63;;;9.40;99.90;;;;;;8342910;28;20333;-64
2023/05/24 03:46:22;;;;;;;23.23;10.13;;;9.40;99.90;;;;;;8349438;28;20185;-64
2023/05/24 03:50:23;;;;;;;15.03;9.17;;;9.40;99.90;;;;;;8343098;28;20329;-65
2023/05/24 03:54:24;;;;;;;23.60;9.73;;;9.30;99.90;;;;;;8340719;28;20198;-66
2023/05/24 03:58:25;;;;;;;20.30;8.33;;;9.30;99.90;;;;;;8345660;28;20230;-65
2023/05/24 04:02:26;;;;;;;22.47;8.80;;;9.20;99.90;;;;;;8345500;28;20205;-65
2023/05/24 04:06:28;;;;;;;18.77;8.10;;;9.20;99.90;;;;;;8340074;28;20335;-67
2023/05/24 04:10:29;;;;;;;15.53;8.50;;;9.10;99.90;;;;;;8351042;28;20208;-65
2023/05/24 04:14:30;;;;;;;16.17;8.17;;;9.00;99.90;;;;;;8342281;28;20272;-66
2023/05/24 04:18:31;;;;;;;19.67;9.03;;;9.00;99.90;;;;;;8350790;28;20213;-65
2023/05/24 04:22:34;;;;;;;18.57;9.13;;;8.90;99.90;;;;;;8343446;28;20181;-65
2023/05/24 04:26:36;;;;;;;18.57;9.03;;;8.90;99.90;;;;;;8344868;28;20231;-66
2023/05/24 04:30:37;;;;;;;24.03;9.13;;;8.90;99.90;;;;;;8347152;28;20213;-65
2023/05/24 04:34:41;;;;;;;20.77;10.03;;;8.80;99.90;;;;;;8355384;28;20194;-65
2023/05/24 04:38:45;;;;;;;19.40;10.07;;;8.80;99.90;;;;;;8347456;28;20218;-66
2023/05/24 04:42:46;;;;;;;21.33;10.03;;;8.80;99.90;;;;;;8345046;28;20316;-65
2023/05/24 04:46:47;;;;;;;18.53;9.90;;;8.80;99.90;;;;;;8335970;28;20186;-64
2023/05/24 04:50:48;;;;;;;23.43;9.97;;;8.70;99.90;;;;;;8346671;28;20190;-64
2023/05/24 04:54:49;;;;;;;17.70;8.97;;;8.70;99.90;;;;;;8343214;28;20272;-64
2023/05/24 04:58:50;;;;;;;20.27;9.37;;;8.60;99.90;;;;;;8343517;28;20297;-65
2023/05/24 05:02:51;;;;;;;19.07;9.80;;;8.50;99.90;;;;;;8343649;28;20204;-65
2023/05/24 05:06:52;;;;;;;19.60;9.67;;;8.50;99.90;;;;;;8347139;28;20209;-66
2023/05/24 05:10:53;;;;;;;18.10;9.93;;;8.50;99.90;;;;;;8346652;28;20219;-63
2023/05/24 05:14:54;;;;;;;23.07;10.87;;;8.50;99.90;;;;;;8333925;28;20181;-66
2023/05/24 05:18:56;;;;;;;22.43;11.27;;;8.50;99.90;;;;;;8346004;28;20220;-65
2023/05/24 05:23:03;;;;;;;27.33;11.33;;;8.50;99.90;;;;;;8345824;28;20185;-66
2023/05/24 05:27:05;;;;;;;23.40;9.77;;;8.60;99.90;;;;;;8337866;28;20297;-67
2023/05/24 05:31:06;;;;;;;22.07;10.13;;;8.60;99.90;;;;;;8346412;28;20188;-68
2023/05/24 05:35:07;;;;;;;17.70;9.47;;;8.70;99.90;;;;;;8339606;28;20207;-66
2023/05/24 05:39:09;;;;;;;21.33;9.53;;;8.80;99.90;;;;;;8337266;28;20213;-66
2023/05/24 05:43:09;;;;;;;20.73;7.87;;;8.90;99.90;;;;;;8343179;28;20276;-65
2023/05/24 05:47:11;;;;;;;14.43;7.47;;;8.90;99.90;;;;;;8343623;28;20181;-64
2023/05/24 05:51:12;;;;;;;18.43;7.07;;;9.00;99.90;;;;;;8344073;28;20207;-66
2023/05/24 05:55:13;;;;;;;21.90;6.70;;;9.10;99.90;;;;;;8338853;28;20186;-65
2023/05/24 05:59:15;;;;;;;15.03;6.53;;;9.20;99.90;;;;;;8346234;28;20267;-66
2023/05/24 06:03:16;;;;;;;17.63;6.23;;;9.20;99.90;;;;;;8354813;28;20291;-67
2023/05/24 06:07:17;;;;;;;18.43;6.10;;;9.40;99.90;;;;;;8358650;28;20276;-66
2023/05/24 06:11:18;;;;;;;17.07;6.37;;;9.40;99.90;;;;;;8352607;28;20206;-67
2023/05/24 06:15:21;;;;;;;16.03;6.57;;;9.50;99.90;;;;;;8348552;28;20190;-65
2023/05/24 06:19:23;;;;;;;13.83;5.97;;;9.50;99.90;;;;;;8350029;28;20293;-65
2023/05/24 06:23:24;;;;;;;15.43;6.03;;;9.70;99.90;;;;;;8349376;28;20182;-67
2023/05/24 06:27:25;;;;;;;12.33;5.63;;;9.90;99.90;;;;;;8367052;28;20191;-66
2023/05/24 06:31:26;;;;;;;14.70;5.50;;;10.00;99.90;;;;;;8345739;28;20210;-67
2023/05/24 06:35:27;;;;;;;9.07;5.03;;;10.10;99.90;;;;;;8352873;28;20211;-66
2023/05/24 06:39:28;;;;;;;13.70;6.20;;;10.10;99.90;;;;;;8350423;28;20326;-66
2023/05/24 06:43:29;;;;;;;15.93;5.93;;;10.20;99.90;;;;;;8351076;28;20179;-66
2023/05/24 06:47:31;;;;;;;19.20;6.23;;;10.30;99.90;;;;;;8342960;28;20212;-65
2023/05/24 06:51:35;;;;;;;12.47;5.73;;;10.20;99.90;;;;;;8354426;28;20189;-65
2023/05/24 06:55:36;;;;;;;13.57;5.70;;;10.00;99.90;;;;;;8347799;28;20200;-65
2023/05/24 06:59:37;;;;;;;12.53;5.03;;;10.10;99.90;;;;;;8357474;28;20210;-66
2023/05/24 07:03:38;;;;;;;17.13;5.60;;;10.30;99.90;;;;;;8354245;28;20205;-66
2023/05/24 07:07:40;;;;;;;11.80;4.90;;;10.60;99.90;;;;;;8344297;28;20205;-65
2023/05/24 07:11:43;;;;;;;13.70;4.90;;;11.00;99.90;;;;;;8348725;28;20200;-64
2023/05/24 07:15:48;;;;;;;14.93;4.50;;;11.30;69.40;;;;;;8351401;28;20196;-64
2023/05/24 07:19:50;;;;;;;17.30;5.77;;;11.40;1.00;;;;;;8344437;28;20255;-67
2023/05/24 07:23:52;;;;;;;10.20;5.23;;;11.30;1.00;;;;;;8348437;28;20221;-64
2023/05/24 07:27:53;;;;;;;11.17;4.37;;;11.30;99.90;;;;;;8350335;28;20271;-64
2023/05/24 07:31:55;;;;;;;9.50;4.17;;;11.50;99.90;;;;;;8347906;28;20204;-64
2023/05/24 07:35:56;;;;;;;12.70;3.83;;;11.70;99.90;;;;;;8347650;28;20248;-65
2023/05/24 07:39:57;;;;;;;12.27;4.37;;;11.80;99.90;;;;;;8345744;28;20216;-66
2023/05/24 07:43:58;;;;;;;10.87;3.97;;;11.80;99.90;;;;;;8357823;28;20191;-64
2023/05/24 07:48:00;;;;;;;13.87;4.37;;;12.00;99.90;;;;;;8344834;28;20186;-65
2023/05/24 07:52:02;;;;;;;12.93;3.80;;;12.40;99.90;;;;;;8353723;28;20255;-64
2023/05/24 07:56:04;;;;;;;11.77;4.03;;;12.50;99.90;;;;;;8355642;28;20193;-65
2023/05/24 08:00:13;;;;;;;17.53;4.27;;;12.50;99.90;;;;;;8345504;28;20228;-65
2023/05/24 08:04:17;;;;;;;9.53;3.30;;;12.60;99.90;;;;;;8344810;28;20206;-64
2023/05/24 08:08:19;;;;;;;10.50;3.43;;;12.90;99.90;;;;;;8348988;28;20220;-67
2023/05/24 08:12:20;;;;;;;9.67;3.10;;;13.40;61.50;;;;;;8346452;28;20202;-65
2023/05/24 08:16:21;;;;;;;11.43;3.00;;;13.40;29.50;;;;;;8345648;28;20186;-66
2023/05/24 08:20:22;;;;;;;13.40;3.50;;;13.20;28.80;;;;;;8342840;28;20213;-73
2023/05/24 08:24:23;;;;;;;10.30;3.50;;;13.30;42.00;;;;;;8345463;28;20414;-72
2023/05/24 08:28:25;;;;;;;8.97;3.00;;;13.70;10.80;;;;;;8348163;28;20192;-65
2023/05/24 08:32:28;;;;;;;11.50;3.37;;;13.60;1.00;;;;;;8349069;28;20193;-66
2023/05/24 08:36:30;;;;;;;12.50;3.00;;;14.00;1.00;;;;;;8345240;28;20200;-65
2023/05/24 08:40:31;;;;;;;9.20;3.10;;;13.90;1.00;;;;;;8347790;28;20215;-64
2023/05/24 08:44:46;;;;;;;8.30;3.03;;;13.60;1.00;;;;;;8347857;28;20350;-65
2023/05/24 08:48:48;;;;;;;6.67;2.80;;;13.20;1.00;;;;;;8352636;28;20298;-65
2023/05/24 08:52:52;;;;;;;8.33;3.23;;;13.20;1.00;;;;;;8346878;28;20196;-64
2023/05/24 08:56:53;;;;;;;9.80;3.73;;;13.90;1.00;;;;;;8337560;28;20205;-65
2023/05/24 09:00:54;;;;;;;8.57;3.23;;;14.40;1.00;;;;;;8347119;28;20216;-64
2023/05/24 09:04:57;;;;;;;14.33;3.53;;;14.00;1.00;;;;;;8341563;28;20209;-67
2023/05/24 09:09:02;;;;;;;7.80;2.77;;;13.90;1.00;;;;;;8343321;28;20233;-66
2023/05/24 09:13:06;;;;;;;6.63;2.60;;;14.40;1.00;;;;;;8337569;28;20220;-66
2023/05/24 09:17:08;;;;;;;11.30;2.95;;;14.40;1.00;;;;;;8343289;28;20189;-67
2023/05/24 09:21:10;;;;;;;13.10;3.03;;;14.40;1.00;;;;;;8340597;28;20264;-65
2023/05/24 09:25:16;;;;;;;9.57;2.73;;;14.70;1.00;;;;;;8341055;28;20189;-65
2023/05/24 09:29:23;;;;;;;6.63;3.00;;;15.10;1.00;;;;;;8340193;28;20284;-66
2023/05/24 09:33:29;;;;;;;8.13;3.13;;;14.30;1.00;;;;;;8343627;28;20186;-65
2023/05/24 09:37:31;;;;;;;13.63;2.53;;;14.00;1.00;;;;;;8362522;28;20220;-66
2023/05/24 09:41:33;;;;;;;9.93;2.63;;;13.90;1.00;;;;;;8352199;28;20277;-65
2023/05/24 09:45:48;;;;;;;7.13;2.60;;;14.40;1.00;;;;;;8323212;28;20196;-66
2023/05/24 09:49:51;;;;;;;9.10;2.60;;;14.70;1.00;;;;;;8345588;28;20190;-65
2023/05/24 09:53:56;;;;;;;8.17;2.17;;;14.80;1.00;;;;;;8343034;28;20193;-66
2023/05/24 09:58:08;;;;;;;9.53;2.50;;;14.60;1.00;;;;;;8347288;28;20210;-65
2023/05/24 10:02:10;;;;;;;11.00;3.00;;;14.10;1.00;;;;;;8344080;28;20514;-65
2023/05/24 10:06:12;;;;;;;6.03;2.03;;;14.00;1.00;;;;;;8347256;28;20190;-65
2023/05/24 10:10:15;;;;;;;8.07;2.57;;;14.50;1.00;;;;;;8343757;28;20233;-66
2023/05/24 10:14:20;;;;;;;6.33;2.53;;;15.20;1.00;;;;;;8344685;28;20186;-65
2023/05/24 10:18:21;;;;;;;9.40;2.80;;;15.60;1.00;;;;;;8342153;28;20217;-66
2023/05/24 10:22:24;;;;;;;7.33;2.20;;;16.00;1.00;;;;;;8347366;28;20181;-66
2023/05/24 10:26:31;;;;;;;6.13;2.40;;;16.40;1.00;;;;;;8345907;28;20244;-65
2023/05/24 10:31:06;;;;;;;6.17;2.30;;;16.20;1.00;;;;;;8358350;28;20236;-65
2023/05/24 10:35:13;;;;;;;9.70;2.53;;;17.80;1.00;;;;;;8341146;28;20252;-65
2023/05/24 10:39:15;;;;;;;7.77;2.30;;;17.60;1.00;;;;;;8320574;28;20210;-66
2023/05/24 10:43:17;;;;;;;8.13;2.73;;;17.40;1.00;;;;;;8344816;28;20193;-66
2023/05/24 10:47:20;;;;;;;11.83;2.97;;;17.00;1.00;;;;;;8347415;28;20186;-65
2023/05/24 10:51:38;;;;;;;6.90;2.57;;;16.30;1.00;;;;;;8343209;28;20201;-67
2023/05/24 10:56:00;;;;;;;7.23;2.33;;;16.30;1.00;;;;;;8351953;28;20191;-66
2023/05/24 11:00:24;;;;;;;6.40;2.37;;;16.70;1.00;;;;;;8348183;28;20213;-66
2023/05/24 11:04:31;;;;;;;8.33;2.20;;;16.90;1.00;;;;;;8352618;28;20213;-66
2023/05/24 11:08:34;;;;;;;5.27;2.20;;;17.30;1.00;;;;;;8345869;28;20239;-65
2023/05/24 11:12:41;;;;;;;6.00;2.70;;;16.80;1.00;;;;;;8349728;28;20206;-66
2023/05/24 11:16:45;;;;;;;7.47;2.30;;;16.60;1.00;;;;;;8346121;28;20209;-65
2023/05/24 11:20:47;;;;;;;6.30;2.57;;;16.80;1.00;;;;;;8347069;28;20241;-65
2023/05/24 11:24:48;;;;;;;9.47;2.50;;;17.20;1.00;;;;;;8349485;28;20191;-65
2023/05/24 11:28:51;;;;;;;6.87;2.20;;;17.30;1.00;;;;;;8350425;28;20202;-65
2023/05/24 11:32:52;;;;;;;8.67;3.00;;;17.40;1.00;;;;;;8348881;28;20189;-64
2023/05/24 11:36:54;;;;;;;5.60;2.27;;;16.70;1.00;;;;;;8345794;28;20257;-68
2023/05/24 11:40:57;;;;;;;6.93;2.17;;;16.20;1.00;;;;;;8350753;28;20201;-68
2023/05/24 11:44:58;;;;;;;8.20;2.63;;;16.40;1.00;;;;;;8344053;28;20193;-65
2023/05/24 11:49:00;;;;;;;5.80;2.27;;;17.10;1.00;;;;;;8350674;28;20289;-64
2023/05/24 11:53:05;;;;;;;10.50;2.63;;;17.70;1.00;;;;;;8347376;28;20179;-63
2023/05/24 11:57:11;;;;;;;7.07;2.40;;;17.90;1.00;;;;;;8346383;28;20200;-65
2023/05/24 12:01:26;;;;;;;7.87;2.40;;;17.10;1.00;;;;;;8341314;28;20182;-65
2023/05/24 12:05:30;;;;;;;6.20;2.10;;;17.10;1.00;;;;;;8348446;28;20201;-64
2023/05/24 12:09:31;;;;;;;5.50;2.50;;;17.90;1.00;;;;;;8345556;28;20299;-65
2023/05/24 12:13:33;;;;;;;4.17;1.90;;;17.30;1.00;;;;;;8338136;28;20185;-65
2023/05/24 12:17:35;;;;;;;7.37;2.00;;;17.30;1.00;;;;;;8346873;28;20208;-64
2023/05/24 12:21:40;;;;;;;5.90;2.10;;;17.70;1.00;;;;;;8347572;28;20301;-65
2023/05/24 12:25:43;;;;;;;7.63;2.27;;;17.10;1.00;;;;;;8346232;28;20307;-66
2023/05/24 12:29:44;;;;;;;4.93;1.90;;;17.20;1.00;;;;;;8350395;28;20214;-64
2023/05/24 12:33:46;;;;;;;6.50;2.13;;;17.10;1.00;;;;;;8334996;28;20190;-66
2023/05/24 12:37:50;;;;;;;4.77;2.00;;;17.00;1.00;;;;;;8342098;28;20211;-66
2023/05/24 12:41:54;;;;;;;8.43;2.90;;;17.50;1.00;;;;;;8345584;28;20178;-65
2023/05/24 12:45:57;;;;;;;6.73;2.20;;;17.50;1.00;;;;;;8347212;28;20182;-65
2023/05/24 12:49:58;;;;;;;8.73;2.47;;;17.40;1.00;;;;;;8352697;28;20186;-65
2023/05/24 12:54:03;;;;;;;4.33;2.13;;;17.60;1.00;;;;;;8345047;28;20192;-64
2023/05/24 12:58:06;;;;;;;8.10;2.20;;;17.80;1.00;;;;;;8357043;28;20232;-67
2023/05/24 13:02:09;;;;;;;5.87;2.17;;;18.40;1.00;;;;;;8344373;28;20192;-64
2023/05/24 13:06:10;;;;;;;6.40;2.53;;;18.00;1.00;;;;;;8331778;28;20186;-65
2023/05/24 13:10:12;;;;;;;5.53;2.20;;;17.50;1.00;;;;;;8327874;28;20209;-64
2023/05/24 13:14:15;;;;;;;6.53;2.83;;;17.20;1.00;;;;;;8346731;28;20196;-65
2023/05/24 13:18:19;;;;;;;8.17;2.27;;;17.10;1.00;;;;;;8347875;28;20208;-65
2023/05/24 13:22:20;;;;;;;6.87;2.33;;;17.70;1.00;;;;;;8345364;28;20186;-64
2023/05/24 13:26:22;;;;;;;7.30;2.57;;;18.00;1.00;;;;;;8336994;28;20183;-65
2023/05/24 13:30:26;;;;;;;8.57;2.13;;;17.40;1.00;;;;;;8346025;28;20194;-65
2023/05/24 13:34:32;;;;;;;7.57;2.60;;;16.90;1.00;;;;;;8346698;28;20216;-63
2023/05/24 13:38:35;;;;;;;6.27;2.10;;;16.70;1.00;;;;;;8346436;28;20328;-65
2023/05/24 13:42:36;;;;;;;6.03;2.10;;;16.60;1.00;;;;;;8343705;28;20251;-65
2023/05/24 13:46:40;;;;;;;5.53;2.27;;;16.50;1.00;;;;;;8345841;28;20178;-66
2023/05/24 13:50:46;;;;;;;8.77;2.50;;;16.40;1.00;;;;;;8340964;28;20199;-67
2023/05/24 13:54:47;;;;;;;7.87;2.53;;;16.20;1.00;;;;;;8334655;28;20194;-65
2023/05/24 13:58:48;;;;;;;7.63;2.50;;;16.10;1.00;;;;;;8345062;28;20204;-64
2023/05/24 14:02:53;;;;;;;6.00;2.30;;;16.50;1.00;;;;;;8343763;28;20299;-64
2023/05/24 14:06:54;;;;;;;7.17;2.60;;;16.90;1.00;;;;;;8341638;28;20186;-64
2023/05/24 14:10:55;;;;;;;5.57;2.67;;;16.70;1.00;;;;;;8340306;28;20224;-65
2023/05/24 14:15:00;;;;;;;7.87;3.07;;;16.30;1.00;;;;;;8342937;28;20213;-65
2023/05/24 14:19:01;;;;;;;8.00;2.40;;;16.10;1.00;;;;;;8345376;28;20214;-65
2023/05/24 14:23:03;;;;;;;6.20;2.53;;;15.90;1.00;;;;;;8342860;28;20186;-65
2023/05/24 14:27:08;;;;;;;8.93;3.57;;;15.90;1.00;;;;;;8349821;28;20285;-64
2023/05/24 14:31:19;;;;;;;7.07;2.47;;;16.00;1.00;;;;;;8331896;28;20217;-64
2023/05/24 14:35:20;;;;;;;6.33;2.00;;;16.40;1.00;;;;;;8347173;28;20186;-64
2023/05/24 14:39:20;;;;;;;4.77;2.00;;;16.90;1.00;;;;;;8360116;28;20244;-64
2023/05/24 14:43:25;;;;;;;4.30;2.00;;;16.80;1.00;;;;;;8349732;28;20193;-64
2023/05/24 14:47:26;;;;;;;5.13;2.20;;;16.70;1.00;;;;;;8352107;28;20192;-64
2023/05/24 14:51:27;;;;;;;8.20;3.07;;;16.50;1.00;;;;;;8357439;28;20201;-66
2023/05/24 14:55:28;;;;;;;6.27;2.33;;;16.40;1.00;;;;;;8344607;28;20188;-65
2023/05/24 14:59:29;;;;;;;5.10;2.57;;;16.10;1.00;;;;;;8351235;28;20283;-65
2023/05/24 15:03:31;;;;;;;8.20;2.90;;;15.90;1.00;;;;;;8350065;28;20206;-64
2023/05/24 15:07:39;;;;;;;5.80;2.67;;;15.80;1.00;;;;;;8348562;28;20221;-64
2023/05/24 15:11:41;;;;;;;11.13;3.43;;;15.70;1.00;;;;;;8330981;28;20309;-63
2023/05/24 15:15:43;;;;;;;9.07;2.80;;;15.70;1.00;;;;;;8350142;28;20198;-65
2023/05/24 15:19:44;;;;;;;7.13;2.67;;;15.90;1.00;;;;;;8347756;28;20312;-64
2023/05/24 15:23:45;;;;;;;8.07;3.10;;;15.90;1.00;;;;;;8349631;28;20233;-65
2023/05/24 15:27:46;;;;;;;7.57;3.37;;;15.90;1.00;;;;;;8353683;28;20193;-65
2023/05/24 15:31:50;;;;;;;4.43;2.63;;;15.90;1.00;;;;;;8348441;28;20263;-65
2023/05/24 15:35:52;;;;;;;6.27;3.10;;;15.90;1.00;;;;;;8350548;28;20193;-64
2023/05/24 15:39:53;;;;;;;10.00;3.23;;;15.90;1.00;;;;;;8338949;28;20212;-63
2023/05/24 15:43:54;;;;;;;5.60;3.17;;;16.00;1.00;;;;;;8348521;28;20301;-64
2023/05/24 15:47:55;;;;;;;5.73;3.00;;;16.10;1.00;;;;;;8344154;28;20194;-64
2023/05/24 15:51:57;;;;;;;6.97;2.93;;;16.20;1.00;;;;;;8349262;28;20269;-65
2023/05/24 15:55:58;;;;;;;8.93;3.20;;;16.30;1.00;;;;;;8343184;28;20188;-65
2023/05/24 16:00:00;;;;;;;7.53;3.27;;;16.40;1.00;;;;;;8349749;28;20222;-63
2023/05/24 16:04:01;;;;;;;6.13;3.27;;;16.20;1.00;;;;;;8363883;28;20213;-64
2023/05/24 16:08:02;;;;;;;5.37;3.33;;;16.30;1.00;;;;;;8344035;28;20193;-64
2023/05/24 16:12:06;;;;;;;8.07;3.20;;;16.40;1.00;;;;;;8344783;28;20223;-64
2023/05/24 16:16:08;;;;;;;7.30;3.63;;;16.20;1.00;;;;;;8363896;28;20182;-65
2023/05/24 16:20:10;;;;;;;8.23;3.80;;;16.10;1.00;;;;;;8344980;28;20236;-69
2023/05/24 16:24:11;;;;;;;6.27;3.73;;;16.00;1.00;;;;;;8349207;28;20208;-70
2023/05/24 16:28:12;;;;;;;5.13;3.47;;;16.10;1.00;;;;;;8347025;28;20208;-69
2023/05/24 16:32:13;;;;;;;9.50;3.87;;;16.20;1.00;;;;;;8341655;28;20214;-68
2023/05/24 16:36:14;;;;;;;7.23;3.80;;;16.20;1.00;;;;;;8348215;28;20189;-70
2023/05/24 16:40:15;;;;;;;10.40;3.90;;;16.00;1.00;;;;;;8347281;28;20217;-69
2023/05/24 16:44:19;;;;;;;6.00;3.37;;;15.90;1.00;;;;;;8346843;28;20222;-68
2023/05/24 16:48:26;;;;;;;6.67;3.80;;;15.70;1.00;;;;;;8348132;28;20235;-71
2023/05/24 16:52:27;;;;;;;9.07;3.60;;;15.60;1.00;;;;;;8341154;28;20198;-70
2023/05/24 16:56:28;;;;;;;6.10;3.43;;;15.60;1.00;;;;;;8343888;28;20190;-72
2023/05/24 17:00:30;;;;;;;10.63;3.47;;;15.60;1.00;;;;;;8347925;28;20305;-69
2023/05/24 17:04:31;;;;;;;7.53;3.77;;;15.70;1.00;;;;;;8343461;28;20276;-70
2023/05/24 17:08:35;;;;;;;6.57;3.53;;;15.80;1.00;;;;;;8342680;28;20193;-70
2023/05/24 17:12:37;;;;;;;10.37;3.90;;;15.80;1.00;;;;;;8346198;28;20205;-69
2023/05/24 17:16:38;;;;;;;6.57;3.17;;;15.90;1.00;;;;;;8339621;28;20194;-68
2023/05/24 17:20:39;;;;;;;9.73;3.80;;;16.10;1.00;;;;;;8346919;28;20210;-69
2023/05/24 17:24:43;;;;;;;6.83;3.10;;;16.60;1.00;;;;;;8357219;28;20316;-69
2023/05/24 17:28:47;;;;;;;5.03;2.93;;;17.20;1.00;;;;;;8343152;28;20189;-70
2023/05/24 17:32:49;;;;;;;5.97;3.37;;;17.50;1.00;;;;;;8344946;28;20191;-69
2023/05/24 17:36:50;;;;;;;7.43;3.40;;;17.70;1.00;;;;;;8348012;28;20198;-68
2023/05/24 17:40:57;;;;;;;7.93;3.77;;;17.70;1.00;;;;;;8346851;28;20283;-69
2023/05/24 17:44:58;;;;;;;7.53;3.50;;;16.90;1.00;;;;;;8343021;28;20190;-70
2023/05/24 17:48:59;;;;;;;7.37;3.83;;;16.50;1.00;;;;;;8345280;28;20188;-69
2023/05/24 17:53:04;;;;;;;8.67;3.20;;;16.30;1.00;;;;;;8345722;28;20201;-68
2023/05/24 17:57:08;;;;;;;7.60;3.10;;;16.10;1.00;;;;;;8351030;28;20181;-70
2023/05/24 18:01:16;;;;;;;8.13;3.40;;;16.00;1.00;;;;;;8352628;28;20206;-69
2023/05/24 18:05:18;;;;;;;6.80;3.27;;;16.00;1.00;;;;;;8361010;28;20264;-69
2023/05/24 18:09:20;;;;;;;7.47;3.27;;;16.10;1.00;;;;;;8351893;28;20189;-69
2023/05/24 18:13:21;;;;;;;10.17;4.17;;;16.00;1.00;;;;;;8351593;28;20178;-68
2023/05/24 18:17:22;;;;;;;8.30;4.80;;;15.90;1.00;;;;;;8354692;28;20218;-68
2023/05/24 18:21:23;;;;;;;12.27;4.50;;;16.00;1.00;;;;;;8357653;28;20212;-69
2023/05/24 18:25:24;;;;;;;7.90;4.03;;;16.00;1.00;;;;;;8349535;28;20276;-70
2023/05/24 18:29:25;;;;;;;8.33;3.60;;;16.10;1.00;;;;;;8351260;28;20182;-69
2023/05/24 18:33:26;;;;;;;5.00;3.10;;;16.10;1.00;;;;;;8346999;28;20190;-68
2023/05/24 18:37:27;;;;;;;7.10;3.40;;;15.90;1.00;;;;;;8349444;28;20196;-68
2023/05/24 18:41:28;;;;;;;6.00;2.73;;;15.50;1.00;;;;;;8359714;28;20183;-69
2023/05/24 18:45:29;;;;;;;6.10;3.33;;;14.90;1.00;;;;;;8351724;28;20210;-70
2023/05/24 18:49:32;;;;;;;4.90;3.27;;;14.30;1.00;;;;;;8352250;28;20182;-71
2023/05/24 18:53:34;;;;;;;5.27;2.90;;;13.80;1.00;;;;;;8346420;28;20201;-70
2023/05/24 18:57:39;;;;;;;4.60;2.90;;;13.30;1.00;;;;;;8357682;28;20206;-71
2023/05/24 19:01:42;;;;;;;7.87;3.60;;;12.90;1.00;;;;;;8357603;28;20189;-71
2023/05/24 19:05:43;;;;;;;6.70;3.83;;;12.50;1.00;;;;;;8350922;28;20218;-70
2023/05/24 19:09:47;;;;;;;5.60;3.73;;;12.20;1.00;;;;;;8348979;28;20202;-70
2023/05/24 19:13:52;;;;;;;11.63;4.53;;;11.90;38.80;;;;;;8346164;28;20198;-70
2023/05/24 19:17:56;;;;;;;5.70;3.97;;;11.70;88.50;;;;;;8341410;28;20217;-69
2023/05/24 19:21:58;;;;;;;8.20;3.97;;;11.50;99.90;;;;;;8351446;28;20270;-69
2023/05/24 19:25:59;;;;;;;6.93;3.93;;;11.30;99.90;;;;;;8354064;28;20177;-70
2023/05/24 19:30:00;;;;;;;7.03;4.40;;;11.20;99.90;;;;;;8354844;28;20182;-70
2023/05/24 19:34:01;;;;;;;5.83;4.57;;;11.00;99.90;;;;;;8352403;28;20220;-69
2023/05/24 19:38:02;;;;;;;6.13;4.20;;;10.90;99.90;;;;;;8348891;28;20211;-70
2023/05/24 19:42:03;;;;;;;8.30;4.20;;;10.80;99.90;;;;;;8349188;28;20189;-69
2023/05/24 19:46:06;;;;;;;7.13;3.87;;;10.60;99.90;;;;;;8346094;28;20184;-69
2023/05/24 19:50:07;;;;;;;8.20;4.43;;;10.50;99.90;;;;;;8348453;28;20194;-70
2023/05/24 19:54:08;;;;;;;5.80;3.40;;;10.40;99.90;;;;;;8347851;28;20220;-71
2023/05/24 19:58:09;;;;;;;7.30;4.40;;;10.30;99.90;;;;;;8351763;28;20292;-70
2023/05/24 20:02:10;;;;;;;5.47;4.43;;;10.20;99.90;;;;;;8348938;28;20210;-70
2023/05/24 20:06:11;;;;;;;10.43;5.20;;;10.10;99.90;;;;;;8357218;28;20230;-72
2023/05/24 20:10:18;;;;;;;6.93;4.00;;;10.00;99.90;;;;;;8358596;28;20222;-70
2023/05/24 20:14:20;;;;;;;6.90;4.77;;;9.90;99.90;;;;;;8352722;28;20186;-72
2023/05/24 20:18:20;;;;;;;8.23;4.90;;;9.80;99.90;;;;;;8357841;28;20194;-72
2023/05/24 20:22:22;;;;;;;8.30;5.17;;;9.70;99.90;;;;;;8356080;28;20207;-71
2023/05/24 20:26:25;;;;;;;9.97;5.37;;;9.60;1.00;;;;;;8349636;28;20177;-71
2023/05/24 20:30:27;;;;;;;7.53;4.83;;;9.50;1.00;;;;;;8359432;28;20186;-71
2023/05/24 20:34:29;;;;;;;7.37;4.93;;;9.40;1.00;;;;;;8354081;28;20182;-70
2023/05/24 20:38:30;;;;;;;11.23;5.23;;;9.30;1.00;;;;;;8348034;28;20252;-70
2023/05/24 20:42:32;;;;;;;7.57;5.43;;;9.20;1.00;;;;;;8355219;28;20177;-71
2023/05/24 20:46:33;;;;;;;6.77;4.57;;;9.10;58.80;;;;;;8350379;28;20259;-71
2023/05/24 20:50:35;;;;;;;9.13;5.37;;;9.00;60.90;;;;;;8354598;28;20248;-71
2023/05/24 20:54:36;;;;;;;7.70;5.07;;;8.90;99.90;;;;;;8352610;28;20182;-71
2023/05/24 20:58:39;;;;;;;8.03;4.67;;;8.80;99.90;;;;;;8362371;28;20287;-72
2023/05/24 21:02:40;;;;;;;9.20;4.83;;;8.70;99.90;;;;;;8354869;28;20198;-72
2023/05/24 21:06:41;;;;;;;6.30;4.17;;;8.70;99.90;;;;;;8347819;28;20209;-72
2023/05/24 21:10:44;;;;;;;7.87;4.73;;;8.60;99.90;;;;;;8355523;28;20236;-71